mai
19

MOTOCROSS FIM – GP DU BRÉSIL : LES QUALIFICATIONS

MX2 – Free Practice – Classification
Pos Nr Rider Nat. Fed. Bike Bestlaptime in lap Diff. First Diff. Prev. Tot. Laps Speed

1 84 Herlings, Jeffrey NED KNMV KTM 2:11.526 9 0:00.000 0:00.000 9 42.754
2 100 Searle, Tommy GBR ACU Kawasaki 2:12.789 9 0:01.263 0:01.263 10 42.347
3 34 Roelants, Joel BEL FMB Kawasaki 2:14.600 7 0:03.074 0:01.811 10 41.777
4 911 Tixier, Jordi FRA FFM KTM 2:14.671 8 0:03.145 0:00.071 12 41.755
5 45 Nicholls, Jake GBR ACU KTM 2:15.144 5 0:03.618 0:00.473 6 41.609
6 17 Butron, Jose ESP RFME KTM 2:15.354 10 0:03.828 0:00.210 10 41.544
7 6 Anstie, Max GBR AMA Honda 2:16.037 8 0:04.511 0:00.683 9 41.336
8 152 Petrov, Petar BUL BMF Suzuki 2:16.392 10 0:04.866 0:00.355 11 41.228
9 25 Coldenhoff, Glenn NED KNMV KTM 2:16.679 7 0:05.153 0:00.287 8 41.142
10 33 Lieber, Julien BEL FMB KTM 2:16.966 9 0:05.440 0:00.287 11 41.055
11 151 Kullas, Harri FIN SML Suzuki 2:17.041 11 0:05.515 0:00.075 12 41.033
12 249 Larsen, Nikolaj DEN DMU Suzuki 2:17.338 8 0:05.812 0:00.297 9 40.944
13 170 Leib, Michael USA AMA Yamaha 2:17.605 8 0:06.079 0:00.267 9 40.865
14 89 van Horebeek, Jeremy BEL FMB KTM 2:17.929 4 0:06.403 0:00.324 7 40.769
15 77 Lupino, Alessandro ITA FMI Husqvarna 2:17.985 6 0:06.459 0:00.056 9 40.752
16 22 Ferrandis, Dylan FRA FFM Kawasaki 2:18.472 7 0:06.946 0:00.487 9 40.609
17 23 Charlier, Christophe FRA FFM Yamaha 2:19.199 6 0:07.673 0:00.727 7 40.397
18 144 Rolando, Nicolas URU FUM Kawasaki 2:19.491 5 0:07.965 0:00.292 7 40.312
19 30 Assuncao , Hector BRA CBM Honda 2:21.790 6 0:10.264 0:02.299 6 39.659
20 173 Guillod, Valentin SUI FMS KTM 2:21.834 7 0:10.308 0:00.044 10 39.646
21 212 Armstrong, Endrews BRA CBM Honda 2:26.894 8 0:15.368 0:05.060 9 38.281
22 238 Lima, Eduardo BRA CBM Kawasaki 2:26.913 4 0:15.387 0:00.019 7 38.276
23 127 Vilardi, Thales BRA CBM Honda 2:28.598 6 0:17.072 0:01.685 7 37.842
24 90 Henn, Gustavo Henrique BRA CBM Kawasaki 2:30.759 4 0:19.233 0:02.161 7 37.299
25 83 Amaral, Anderson BRA CBM Honda 2:31.683 5 0:20.157 0:00.924 8 37.072
26 194 Lizott, Leonardo BRA CBM Honda 2:32.962 3 0:21.436 0:01.279 8 36.762
27 544 Müller, Marcal BRA CBM Kawasaki 2:33.318 4 0:21.792 0:00.356 5 36.677
28 37 Teillet, Valentin FRA FFM Kawasaki 2:33.423 2 0:21.897 0:00.105 3 36.652
29 52 Garro, Emiliano Gaston ARG CAMOD Kawasaki 2:41.063 2 0:29.537 0:07.640 8 34.913
30 108 Durbano, Jeremias ARG CAMOD Kawasaki 2:45.679 6 0:34.153 0:04.616 8 33.94

MX2 – Qualifying Race – Classification
Pos Nr Rider Nat. Fed. Bike Time laps Diff. First Diff. Prev. Bestlaptime in lap Speed

1 84 Herlings, Jeffrey NED KNMV KTM 25:04.788 11 0:00.000 0:00.000 2:02.340 2 45.964
2 100 Searle, Tommy GBR ACU Kawasaki 25:30.583 11 0:25.795 0:25.795 2:02.914 3 45.749
3 89 van Horebeek, Jeremy BEL FMB KTM 25:47.518 11 0:42.730 0:16.935 2:04.014 2 45.343
4 23 Charlier, Christophe FRA FFM Yamaha 26:04.631 11 0:59.843 0:17.113 2:07.512 3 44.099
5 17 Butron, Jose ESP RFME KTM 26:10.701 11 1:05.913 0:06.070 2:07.447 3 44.122
6 45 Nicholls, Jake GBR ACU KTM 26:27.991 11 1:23.203 0:17.290 2:09.903 4 43.288
7 152 Petrov, Petar BUL BMF Suzuki 26:34.280 11 1:29.492 0:06.289 2:09.703 4 43.354
8 173 Guillod, Valentin SUI FMS KTM 26:40.615 11 1:35.827 0:06.335 2:11.975 6 42.608
9 6 Anstie, Max GBR AMA Honda 26:41.578 11 1:36.790 0:00.963 2:09.201 6 43.523
10 25 Coldenhoff, Glenn NED KNMV KTM 26:42.754 11 1:37.966 0:01.176 2:09.830 6 43.312
11 151 Kullas, Harri FIN SML Suzuki 26:43.834 11 1:39.046 0:01.080 2:09.425 6 43.448
12 911 Tixier, Jordi FRA FFM KTM 26:44.931 11 1:40.143 0:01.097 2:09.947 8 43.273
13 249 Larsen, Nikolaj DEN DMU Suzuki 26:46.667 11 1:41.879 0:01.736 2:10.345 6 43.141
14 34 Roelants, Joel BEL FMB Kawasaki 26:47.782 11 1:42.994 0:01.115 2:09.741 5 43.342
15 170 Leib, Michael USA AMA Yamaha 26:49.326 11 1:44.538 0:01.544 2:09.320 6 43.483
16 33 Lieber, Julien BEL FMB KTM 26:49.871 11 1:45.083 0:00.545 2:10.893 7 42.96
17 30 Assuncao , Hector BRA CBM Honda 27:05.573 11 2:00.785 0:15.702 2:10.722 2 43.016
18 77 Lupino, Alessandro ITA FMI Husqvarna 27:07.601 11 2:02.813 0:02.028 2:11.022 3 42.918
19 22 Ferrandis, Dylan FRA FFM Kawasaki 25:10.813 10 1 lap 1 lap 2:08.599 5 43.727
20 83 Amaral, Anderson BRA CBM Honda 25:32.912 10 1 lap 0:22.099 2:16.169 1 41.296
21 127 Vilardi, Thales BRA CBM Honda 25:35.516 10 1 lap 0:02.604 2:17.587 7 40.87
22 238 Lima, Eduardo BRA CBM Kawasaki 25:55.936 10 1 lap 0:20.420 2:14.512 2 41.804
23 212 Armstrong, Endrews BRA CBM Honda 25:57.158 10 1 lap 0:01.222 2:18.247 5 40.675
24 544 Müller, Marcal BRA CBM Kawasaki 25:58.589 10 1 lap 0:01.431 2:18.116 3 40.714
25 194 Lizott, Leonardo BRA CBM Honda 26:32.983 10 1 lap 0:34.394 2:18.917 3 40.479
26 90 Henn, Gustavo Henrique BRA CBM Kawasaki 26:52.890 10 1 lap 0:19.907 2:23.355 3 39.226
27 144 Rolando, Nicolas URU FUM Kawasaki 27:14.142 10 1 lap 0:21.252 2:22.146 3 39.559
28 52 Garro, Emiliano Gaston ARG CAMOD Kawasaki 27:19.382 10 1 lap 0:05.240 2:24.332 3 38.96
29 108 Durbano, Jeremias ARG CAMOD Kawasaki 24:35.279 7 4 laps 3 laps 2:23.262 3 39.251

MX1 – Free Practice – Classification
Pos Nr Rider Nat. Fed. Bike Bestlaptime in lap Diff. First Diff. Prev. Tot. Laps Speed

1 222 Cairoli, Antonio ITA FMI KTM 2:08.462 8 0:00.000 0:00.000 8 43.773
2 22 Strijbos, Kevin BEL FMB KTM 2:08.795 9 0:00.333 0:00.333 11 43.66
3 25 Desalle, Clement BEL FMB Suzuki 2:10.338 6 0:01.876 0:01.543 10 43.143
4 999 Goncalves, Rui POR FMP Honda 2:11.193 6 0:02.731 0:00.855 12 42.862
5 377 Pourcel, Christophe FRA FFM Kawasaki 2:11.448 5 0:02.986 0:00.255 5 42.779
6 7 Barragan, Jonathan ESP RFME Honda 2:11.644 9 0:03.182 0:00.196 11 42.715
7 121 Boog, Xavier FRA FFM Kawasaki 2:12.182 9 0:03.720 0:00.538 12 42.541
8 19 Philippaerts, David ITA FMI Yamaha 2:12.936 7 0:04.474 0:00.754 9 42.3
9 24 Simpson, Shaun GBR ACU Yamaha 2:14.436 7 0:05.974 0:01.500 8 41.828
10 91 Karro, Matiss LAT LAMSF KTM 2:14.543 7 0:06.081 0:00.107 9 41.795
11 777 Bobryshev, Evgeny RUS MFR Honda 2:14.568 7 0:06.106 0:00.025 7 41.787
12 11 Pourcel, Sebastien FRA FFM Kawasaki 2:14.879 3 0:06.417 0:00.311 7 41.691
13 9 de Dycker, Ken BEL FMB KTM 2:15.425 5 0:06.963 0:00.546 10 41.523
14 21 Paulin, Gautier FRA FFM Kawasaki 2:15.567 2 0:07.105 0:00.142 7 41.479
15 992 Ramos, Jean Carlo BRA CBM Kawasaki 2:16.335 9 0:07.873 0:00.768 10 41.245
16 111 Ferris, Dean AUS MA Kawasaki 2:16.853 9 0:08.391 0:00.518 9 41.089
17 903 Balbi JR, Antonio Jorge BRA CBM Kawasaki 2:17.032 7 0:08.570 0:00.179 7 41.036
18 61 Brakke, Herjan NED KNMV Yamaha 2:17.178 7 0:08.716 0:00.146 9 40.992
19 407 Chatfield, Adam GBR CBM Honda 2:17.216 4 0:08.754 0:00.038 8 40.981
20 4 Leok, Tanel EST EMF Suzuki 2:17.345 9 0:08.883 0:00.129 11 40.942
21 41 Smith, Alfie GBR ACU Yamaha 2:17.803 8 0:09.341 0:00.458 9 40.806
22 214 Silva, Leandro BRA CBM Honda 2:18.762 9 0:10.300 0:00.959 9 40.524
23 101 Humberto, Martin VEN FMV Honda 2:19.764 3 0:11.302 0:01.002 9 40.234
24 67 Tiainen, Santtu FIN SML Kawasaki 2:20.282 8 0:11.820 0:00.518 10 40.085
25 221 Garcia, Wellington BRA CBM Honda 2:22.556 6 0:14.094 0:02.274 10 39.446
26 39 Guarneri, Davide ITA FMI KTM 2:23.164 7 0:14.702 0:00.608 10 39.278
27 38 Lima, Marcello BRA CBM Kawasaki 2:24.250 6 0:15.788 0:01.086 8 38.982
28 523 Correa, Luis ARG CAMOD Kawasaki 2:24.963 6 0:16.501 0:00.713 9 38.791
29 69 Garrido, Adrian ESP CBM Honda 2:26.987 9 0:18.525 0:02.024 9 38.256
30 211 Smakowicz, Leonardo BRA CBM Kawasaki 2:31.240 8 0:22.778 0:04.253 8 37.181
31 512 Bujanda, Jorge MEX FMM Yamaha 2:43.361 7 0:34.899 0:12.121 9 34.422
32 42 Parker, Nathan GBR ACU KTM 2:45.509 1 0:37.047 0:02.148 2 33.975
33 27 Navaro, Sebastian ARG CAMOD Kawasaki 2:54.387 1 0:45.925 0:08.878 6 32.246
34 28 Navaro, Dario ARG CAMOD KTM 2:56.367 4 0:47.905 0:01.980 6 31.884
35 183 Frossard, Steven FRA FFM Yamaha 2:58.948 1 0:50.486 0:02.581 1 31.424
36 935 Sebben, Leonardo ARG CAMOD Kawasaki 3:17.004 1 1:08.542 0:18.056 1 28.544

MX1 – Qualifying Race – Classification
Pos Nr Rider Nat. Fed. Bike Time laps Diff. First Diff. Prev. Bestlaptime in lap Speed

1 222 Cairoli, Antonio ITA FMI KTM 25:26.628 11 0:00.000 0:00.000 2:05.629 7 44.76
2 21 Paulin, Gautier FRA FFM Kawasaki 25:35.314 11 0:08.686 0:08.686 2:05.863 1 44.677
3 25 Desalle, Clement BEL FMB Suzuki 25:41.897 11 0:15.269 0:06.583 2:06.425 7 44.479
4 777 Bobryshev, Evgeny RUS MFR Honda 25:46.371 11 0:19.743 0:04.474 2:06.588 3 44.421
5 111 Ferris, Dean AUS MA Kawasaki 26:00.679 11 0:34.051 0:14.308 2:06.840 4 44.333
6 19 Philippaerts, David ITA FMI Yamaha 26:02.856 11 0:36.228 0:02.177 2:08.575 4 43.735
7 7 Barragan, Jonathan ESP RFME Honda 26:04.506 11 0:37.878 0:01.650 2:08.275 2 43.837
8 9 de Dycker, Ken BEL FMB KTM 26:06.209 11 0:39.581 0:01.703 2:05.812 3 44.695
9 121 Boog, Xavier FRA FFM Kawasaki 26:08.401 11 0:41.773 0:02.192 2:08.664 8 43.705
10 999 Goncalves, Rui POR FMP Honda 26:11.094 11 0:44.466 0:02.693 2:08.776 4 43.667
11 91 Karro, Matiss LAT LAMSF KTM 26:16.032 11 0:49.404 0:04.938 2:07.667 3 44.046
12 39 Guarneri, Davide ITA FMI KTM 26:17.430 11 0:50.802 0:01.398 2:08.154 4 43.878
13 22 Strijbos, Kevin BEL FMB KTM 26:24.656 11 0:58.028 0:07.226 2:07.036 6 44.265
14 4 Leok, Tanel EST EMF Suzuki 26:38.131 11 1:11.503 0:13.475 2:09.205 9 43.522
15 24 Simpson, Shaun GBR ACU Yamaha 26:50.522 11 1:23.894 0:12.391 2:08.766 3 43.67
16 11 Pourcel, Sebastien FRA FFM Kawasaki 26:52.506 11 1:25.878 0:01.984 2:10.066 3 43.233
17 407 Chatfield, Adam GBR CBM Honda 26:56.161 11 1:29.533 0:03.655 2:12.429 8 42.462
18 903 Balbi JR, Antonio Jorge BRA CBM Kawasaki 27:02.843 11 1:36.215 0:06.682 2:12.766 9 42.354
19 61 Brakke, Herjan NED KNMV Yamaha 27:24.660 11 1:58.032 0:21.817 2:13.529 9 42.112
20 377 Pourcel, Christophe FRA FFM Kawasaki 27:31.185 11 2:04.557 0:06.525 2:12.150 3 42.552
21 214 Silva, Leandro BRA CBM Honda 27:40.234 11 2:13.606 0:09.049 2:15.166 4 41.602
22 221 Garcia, Wellington BRA CBM Honda 27:56.418 11 2:29.790 0:16.184 2:13.052 1 42.263
23 992 Ramos, Jean Carlo BRA CBM Kawasaki 25:16.824 10 1 lap 1 lap 2:14.636 5 41.766
24 67 Tiainen, Santtu FIN SML Kawasaki 25:40.627 10 1 lap 0:23.803 2:14.376 4 41.847
25 38 Lima, Marcello BRA CBM Kawasaki 25:45.361 10 1 lap 0:04.734 2:17.374 5 40.934
26 101 Humberto, Martin VEN FMV Honda 25:52.311 10 1 lap 0:06.950 2:17.134 3 41.005
27 523 Correa, Luis ARG CAMOD Kawasaki 25:59.046 10 1 lap 0:06.735 2:17.637 6 40.855
28 69 Garrido, Adrian ESP CBM Honda 26:11.358 10 1 lap 0:12.312 2:19.596 5 40.282
29 42 Parker, Nathan GBR ACU KTM 27:28.509 10 1 lap 1:17.151 2:24.028 2 39.042
30 211 Smakowicz, Leonardo BRA CBM Kawasaki 27:52.929 10 1 lap 0:24.420 2:25.417 3 38.669
31 512 Bujanda, Jorge MEX FMM Yamaha 25:33.024 9 2 laps 1 lap 2:25.763 4 38.578
32 28 Navaro, Dario ARG CAMOD KTM 27:09.567 9 2 laps 1:36.543 2:35.693 1 36.117
33 27 Navaro, Sebastian ARG CAMOD Kawasaki 24:03.666 7 4 laps 2 laps 2:31.373 1 37.148
34 41 Smith, Alfie GBR ACU Yamaha 13:24.604 4 7 laps 3 laps 2:16.659 3 41.148
35 935 Sebben, Leonardo ARG CAMOD Kawasaki 9:26.266 2 9 laps 2 laps 2:58.290 1 31.54

WMX Qualifying Race Results : 1. Chiara Fontanesi (ITA, Yamaha), 19:44.368; 2. Natalie Kane (GBR, KTM), 19:46.261; 3. Britt van der Wekken (NED, Honda), 20:24.730; 4. Marianne Veenstra (NED, KTM) 20:26.725; 5. Joanna Miller (POL, KTM), 20:37.968; 6. Nina Klink (NED, KTM), 20:43.211; 7. Francesca Nocera (ITA, KTM), 20:45.665; 8. Justine Charroux (FRA, Yamaha), 20:46.541; 9. Anne Borchers (GER, Suzuki), 20:47.393; 10. Virginie Germond (SUI, Suzuki), 21:05.737

MX3 Qualifying Race Results : 1. Matthias Walkner (AUT, KTM), 23:41.749; 2. Gunter Schmidinger (AUT, Honda), 23:42.910; 3. Klemen Gercar (SLO, Honda), 23:43.635; 4. Martin Michek (CZE, KTM), 24:19.371; 5. Ceriel Klein Kromhof (NED, Honda), 24:21.565; 6. Joan Cros Cortes (ESP, Suzuki), 24:23.241; 7. Mykola Pashchynskyi (UKR, KTM), 24:24.739; 8. Miguel Cordovez (ECU, Honda), 24:27.889; 9. Petr Bartos (CZE, KTM), 24:31.861; 10. Antti Pyrhonen (FIN, Honda), 24:37.066

A voir aussi :

Le commentaires sont fermés.